sensor_id;sensor_type;location;lat;lon;timestamp;pressure;altitude;pressure_sealevel;temperature;humidity
66681;BME280;53575;51.366;12.350;2022-08-14T00:00:16;100160.72;;;19.82;81.61
66681;BME280;53575;51.366;12.350;2022-08-14T00:02:42;100169.19;;;19.71;82.11
66681;BME280;53575;51.366;12.350;2022-08-14T00:05:10;100173.75;;;19.68;82.45
66681;BME280;53575;51.366;12.350;2022-08-14T00:07:35;100170.56;;;19.60;82.63
66681;BME280;53575;51.366;12.350;2022-08-14T00:10:08;100176.69;;;19.41;83.65
66681;BME280;53575;51.366;12.350;2022-08-14T00:12:38;100174.94;;;19.61;82.49
66681;BME280;53575;51.366;12.350;2022-08-14T00:15:12;100167.19;;;19.56;82.72
66681;BME280;53575;51.366;12.350;2022-08-14T00:17:38;100174.44;;;19.53;82.89
66681;BME280;53575;51.366;12.350;2022-08-14T00:20:05;100181.59;;;19.51;82.98
66681;BME280;53575;51.366;12.350;2022-08-14T00:22:32;100170.88;;;19.33;83.62
66681;BME280;53575;51.366;12.350;2022-08-14T00:24:58;100166.72;;;19.28;83.99
66681;BME280;53575;51.366;12.350;2022-08-14T00:27:23;100168.88;;;19.19;84.59
66681;BME280;53575;51.366;12.350;2022-08-14T00:29:49;100167.97;;;19.19;84.85
66681;BME280;53575;51.366;12.350;2022-08-14T00:32:14;100166.56;;;19.31;84.04
66681;BME280;53575;51.366;12.350;2022-08-14T00:34:40;100167.91;;;19.41;83.45
66681;BME280;53575;51.366;12.350;2022-08-14T00:37:05;100162.69;;;19.39;83.28
66681;BME280;53575;51.366;12.350;2022-08-14T00:39:31;100169.03;;;19.35;83.62
66681;BME280;53575;51.366;12.350;2022-08-14T00:41:57;100161.09;;;19.35;83.56
66681;BME280;53575;51.366;12.350;2022-08-14T00:44:23;100159.44;;;19.33;83.29
66681;BME280;53575;51.366;12.350;2022-08-14T00:46:48;100168.88;;;19.38;83.25
66681;BME280;53575;51.366;12.350;2022-08-14T00:49:14;100162.75;;;19.57;82.30
66681;BME280;53575;51.366;12.350;2022-08-14T00:51:41;100164.53;;;19.37;83.41
66681;BME280;53575;51.366;12.350;2022-08-14T00:54:08;100167.81;;;19.23;84.02
66681;BME280;53575;51.366;12.350;2022-08-14T00:56:35;100164.13;;;19.26;83.82
66681;BME280;53575;51.366;12.350;2022-08-14T00:59:02;100159.63;;;19.28;83.91
66681;BME280;53575;51.366;12.350;2022-08-14T01:01:28;100162.91;;;19.54;82.94
66681;BME280;53575;51.366;12.350;2022-08-14T01:03:56;100166.56;;;19.51;82.66
66681;BME280;53575;51.366;12.350;2022-08-14T01:06:21;100157.25;;;19.42;82.71
66681;BME280;53575;51.366;12.350;2022-08-14T01:08:47;100167.50;;;19.30;83.71
66681;BME280;53575;51.366;12.350;2022-08-14T01:11:14;100156.19;;;19.26;83.97
66681;BME280;53575;51.366;12.350;2022-08-14T01:13:42;100152.63;;;19.27;83.81
66681;BME280;53575;51.366;12.350;2022-08-14T01:16:14;100149.94;;;19.08;85.07
66681;BME280;53575;51.366;12.350;2022-08-14T01:18:40;100152.16;;;19.17;84.63
66681;BME280;53575;51.366;12.350;2022-08-14T01:21:31;100151.75;;;19.27;84.08
66681;BME280;53575;51.366;12.350;2022-08-14T01:23:57;100159.13;;;19.20;84.57
66681;BME280;53575;51.366;12.350;2022-08-14T01:26:24;100154.59;;;19.22;84.25
66681;BME280;53575;51.366;12.350;2022-08-14T01:28:52;100159.78;;;19.25;84.53
66681;BME280;53575;51.366;12.350;2022-08-14T01:31:25;100155.81;;;18.94;85.59
66681;BME280;53575;51.366;12.350;2022-08-14T01:33:53;100159.94;;;19.02;86.07
66681;BME280;53575;51.366;12.350;2022-08-14T01:36:24;100155.09;;;18.91;86.29
66681;BME280;53575;51.366;12.350;2022-08-14T01:38:51;100166.66;;;18.88;86.91
66681;BME280;53575;51.366;12.350;2022-08-14T01:41:19;100166.13;;;18.80;87.48
66681;BME280;53575;51.366;12.350;2022-08-14T01:43:57;100155.00;;;18.72;88.14
66681;BME280;53575;51.366;12.350;2022-08-14T01:46:31;100151.59;;;18.68;88.01
66681;BME280;53575;51.366;12.350;2022-08-14T01:48:57;100150.53;;;18.74;87.93
66681;BME280;53575;51.366;12.350;2022-08-14T01:51:25;100144.38;;;18.51;88.83
66681;BME280;53575;51.366;12.350;2022-08-14T01:54:01;100144.69;;;18.44;89.74
66681;BME280;53575;51.366;12.350;2022-08-14T01:56:30;100137.59;;;18.44;89.76
66681;BME280;53575;51.366;12.350;2022-08-14T01:59:04;100138.38;;;18.46;89.58
66681;BME280;53575;51.366;12.350;2022-08-14T02:01:30;100131.66;;;18.39;89.80
66681;BME280;53575;51.366;12.350;2022-08-14T02:03:56;100124.03;;;18.32;90.53
66681;BME280;53575;51.366;12.350;2022-08-14T02:06:21;100121.56;;;18.27;90.62
66681;BME280;53575;51.366;12.350;2022-08-14T02:08:47;100122.47;;;18.26;90.57
66681;BME280;53575;51.366;12.350;2022-08-14T02:11:13;100123.31;;;18.28;90.71
66681;BME280;53575;51.366;12.350;2022-08-14T02:13:46;100119.72;;;18.29;90.75
66681;BME280;53575;51.366;12.350;2022-08-14T02:16:13;100121.78;;;18.43;89.63
66681;BME280;53575;51.366;12.350;2022-08-14T02:18:42;100127.25;;;18.38;90.13
66681;BME280;53575;51.366;12.350;2022-08-14T02:21:08;100120.25;;;18.37;89.57
66681;BME280;53575;51.366;12.350;2022-08-14T02:23:33;100115.84;;;18.58;88.61
66681;BME280;53575;51.366;12.350;2022-08-14T02:26:00;100118.03;;;18.69;87.92
66681;BME280;53575;51.366;12.350;2022-08-14T02:28:27;100115.31;;;18.72;87.26
66681;BME280;53575;51.366;12.350;2022-08-14T02:30:55;100117.50;;;18.61;87.72
66681;BME280;53575;51.366;12.350;2022-08-14T02:33:21;100118.28;;;18.42;88.84
66681;BME280;53575;51.366;12.350;2022-08-14T02:35:47;100116.75;;;18.37;89.26
66681;BME280;53575;51.366;12.350;2022-08-14T02:38:13;100111.94;;;18.46;88.91
66681;BME280;53575;51.366;12.350;2022-08-14T02:40:38;100112.09;;;18.43;88.94
66681;BME280;53575;51.366;12.350;2022-08-14T02:43:04;100116.03;;;18.33;89.08
66681;BME280;53575;51.366;12.350;2022-08-14T02:45:31;100110.00;;;18.30;89.87
66681;BME280;53575;51.366;12.350;2022-08-14T02:47:59;100109.25;;;18.26;90.09
66681;BME280;53575;51.366;12.350;2022-08-14T02:50:25;100110.53;;;18.16;90.72
66681;BME280;53575;51.366;12.350;2022-08-14T02:52:50;100107.13;;;18.14;90.89
66681;BME280;53575;51.366;12.350;2022-08-14T02:55:17;100117.19;;;18.04;91.29
66681;BME280;53575;51.366;12.350;2022-08-14T02:57:43;100112.72;;;18.28;90.46
66681;BME280;53575;51.366;12.350;2022-08-14T03:00:09;100114.34;;;18.31;89.84
66681;BME280;53575;51.366;12.350;2022-08-14T03:02:37;100114.44;;;18.29;90.26
66681;BME280;53575;51.366;12.350;2022-08-14T03:05:03;100107.34;;;18.08;90.53
66681;BME280;53575;51.366;12.350;2022-08-14T03:07:29;100120.69;;;18.05;91.52
66681;BME280;53575;51.366;12.350;2022-08-14T03:09:54;100110.19;;;18.25;90.86
66681;BME280;53575;51.366;12.350;2022-08-14T03:12:20;100104.16;;;18.21;89.93
66681;BME280;53575;51.366;12.350;2022-08-14T03:14:46;100106.84;;;18.20;90.20
66681;BME280;53575;51.366;12.350;2022-08-14T03:17:16;100105.13;;;18.19;90.21
66681;BME280;53575;51.366;12.350;2022-08-14T03:19:41;100094.84;;;18.13;90.48
66681;BME280;53575;51.366;12.350;2022-08-14T03:22:07;100112.97;;;18.22;90.48
66681;BME280;53575;51.366;12.350;2022-08-14T03:24:33;100113.78;;;18.02;91.76
66681;BME280;53575;51.366;12.350;2022-08-14T03:27:02;100109.13;;;18.29;90.84
66681;BME280;53575;51.366;12.350;2022-08-14T03:29:28;100114.66;;;18.23;91.11
66681;BME280;53575;51.366;12.350;2022-08-14T03:31:54;100108.47;;;18.24;91.37
66681;BME280;53575;51.366;12.350;2022-08-14T03:34:20;100110.13;;;18.26;91.29
66681;BME280;53575;51.366;12.350;2022-08-14T03:36:49;100111.97;;;18.24;91.64
66681;BME280;53575;51.366;12.350;2022-08-14T03:39:21;100108.41;;;18.25;91.65
66681;BME280;53575;51.366;12.350;2022-08-14T03:41:50;100110.25;;;18.23;92.25
66681;BME280;53575;51.366;12.350;2022-08-14T03:44:16;100090.09;;;18.21;92.23
66681;BME280;53575;51.366;12.350;2022-08-14T03:46:41;100092.41;;;18.29;92.12
66681;BME280;53575;51.366;12.350;2022-08-14T03:49:08;100097.19;;;18.41;91.34
66681;BME280;53575;51.366;12.350;2022-08-14T03:51:35;100081.44;;;18.38;90.93
66681;BME280;53575;51.366;12.350;2022-08-14T03:54:04;100081.22;;;18.42;91.69
66681;BME280;53575;51.366;12.350;2022-08-14T03:56:32;100082.16;;;18.41;91.86
66681;BME280;53575;51.366;12.350;2022-08-14T03:59:00;100070.00;;;18.37;91.78
66681;BME280;53575;51.366;12.350;2022-08-14T04:01:30;100079.59;;;18.40;91.64
66681;BME280;53575;51.366;12.350;2022-08-14T04:03:56;100072.03;;;18.31;92.14
66681;BME280;53575;51.366;12.350;2022-08-14T04:06:34;100078.06;;;18.34;92.19
66681;BME280;53575;51.366;12.350;2022-08-14T04:09:00;100077.13;;;18.35;92.06
66681;BME280;53575;51.366;12.350;2022-08-14T04:11:26;100078.75;;;18.39;91.81
66681;BME280;53575;51.366;12.350;2022-08-14T04:13:53;100070.59;;;18.44;91.40
66681;BME280;53575;51.366;12.350;2022-08-14T04:16:20;100065.38;;;18.42;91.14
66681;BME280;53575;51.366;12.350;2022-08-14T04:18:57;100060.22;;;18.39;91.61
66681;BME280;53575;51.366;12.350;2022-08-14T04:21:25;100063.84;;;18.57;90.74
66681;BME280;53575;51.366;12.350;2022-08-14T04:23:55;100061.06;;;18.60;90.23
66681;BME280;53575;51.366;12.350;2022-08-14T04:26:22;100062.22;;;18.55;90.30
66681;BME280;53575;51.366;12.350;2022-08-14T04:28:49;100065.50;;;18.60;90.02
66681;BME280;53575;51.366;12.350;2022-08-14T04:31:16;100067.31;;;18.59;90.27
66681;BME280;53575;51.366;12.350;2022-08-14T04:33:42;100068.88;;;18.63;89.97
66681;BME280;53575;51.366;12.350;2022-08-14T04:36:08;100067.44;;;18.56;90.19
66681;BME280;53575;51.366;12.350;2022-08-14T04:38:33;100062.78;;;18.61;90.46
66681;BME280;53575;51.366;12.350;2022-08-14T04:41:17;100055.56;;;18.65;89.76
66681;BME280;53575;51.366;12.350;2022-08-14T04:44:01;100054.41;;;18.72;89.45
66681;BME280;53575;51.366;12.350;2022-08-14T04:46:26;100064.63;;;18.81;89.26
66681;BME280;53575;51.366;12.350;2022-08-14T04:48:52;100053.81;;;18.86;89.11
66681;BME280;53575;51.366;12.350;2022-08-14T04:51:20;100050.97;;;18.90;88.91
66681;BME280;53575;51.366;12.350;2022-08-14T04:53:52;100044.47;;;18.97;88.59
66681;BME280;53575;51.366;12.350;2022-08-14T04:56:20;100055.78;;;19.01;88.27
66681;BME280;53575;51.366;12.350;2022-08-14T04:58:47;100051.41;;;19.00;88.65
66681;BME280;53575;51.366;12.350;2022-08-14T05:01:13;100052.94;;;19.06;88.82
66681;BME280;53575;51.366;12.350;2022-08-14T05:03:40;100047.91;;;19.18;88.06
66681;BME280;53575;51.366;12.350;2022-08-14T05:06:08;100049.56;;;19.21;88.04
66681;BME280;53575;51.366;12.350;2022-08-14T05:08:34;100040.56;;;19.25;87.69
66681;BME280;53575;51.366;12.350;2022-08-14T05:11:01;100047.34;;;19.31;87.37
66681;BME280;53575;51.366;12.350;2022-08-14T05:13:28;100040.66;;;19.42;86.63
66681;BME280;53575;51.366;12.350;2022-08-14T05:15:56;100048.41;;;19.45;86.53
66681;BME280;53575;51.366;12.350;2022-08-14T05:18:28;100044.63;;;19.51;86.12
66681;BME280;53575;51.366;12.350;2022-08-14T05:20:57;100043.94;;;19.47;86.34
66681;BME280;53575;51.366;12.350;2022-08-14T05:23:26;100028.44;;;19.38;86.57
66681;BME280;53575;51.366;12.350;2022-08-14T05:25:53;100032.59;;;19.44;86.77
66681;BME280;53575;51.366;12.350;2022-08-14T05:28:24;100028.13;;;19.46;86.81
66681;BME280;53575;51.366;12.350;2022-08-14T05:30:55;100030.81;;;19.44;86.73
66681;BME280;53575;51.366;12.350;2022-08-14T05:33:23;100025.03;;;19.36;87.20
66681;BME280;53575;51.366;12.350;2022-08-14T05:35:50;100020.69;;;19.53;86.55
66681;BME280;53575;51.366;12.350;2022-08-14T05:38:19;100028.75;;;19.51;86.64
66681;BME280;53575;51.366;12.350;2022-08-14T05:40:46;100028.75;;;19.51;86.62
66681;BME280;53575;51.366;12.350;2022-08-14T05:43:13;100025.78;;;19.57;86.37
66681;BME280;53575;51.366;12.350;2022-08-14T05:45:39;100023.06;;;19.59;86.76
66681;BME280;53575;51.366;12.350;2022-08-14T05:48:05;100022.94;;;19.81;85.36
66681;BME280;53575;51.366;12.350;2022-08-14T05:50:33;100020.66;;;19.90;84.42
66681;BME280;53575;51.366;12.350;2022-08-14T05:53:00;100017.63;;;19.81;85.00
66681;BME280;53575;51.366;12.350;2022-08-14T05:55:25;100021.19;;;19.80;85.31
66681;BME280;53575;51.366;12.350;2022-08-14T05:57:57;100011.53;;;19.79;85.65
66681;BME280;53575;51.366;12.350;2022-08-14T06:00:26;100012.00;;;19.87;85.21
66681;BME280;53575;51.366;12.350;2022-08-14T06:02:52;100010.91;;;19.91;85.22
66681;BME280;53575;51.366;12.350;2022-08-14T06:05:17;100014.94;;;20.00;85.07
66681;BME280;53575;51.366;12.350;2022-08-14T06:07:43;100012.28;;;20.00;85.07
66681;BME280;53575;51.366;12.350;2022-08-14T06:10:09;100018.19;;;20.05;85.09
66681;BME280;53575;51.366;12.350;2022-08-14T06:12:35;99999.63;;;20.05;85.39
66681;BME280;53575;51.366;12.350;2022-08-14T06:15:03;100003.69;;;20.12;84.94
66681;BME280;53575;51.366;12.350;2022-08-14T06:17:30;99998.06;;;20.18;84.85
66681;BME280;53575;51.366;12.350;2022-08-14T06:19:55;99984.75;;;20.19;84.26
66681;BME280;53575;51.366;12.350;2022-08-14T06:22:21;99986.84;;;20.30;84.48
66681;BME280;53575;51.366;12.350;2022-08-14T06:24:46;99972.47;;;20.34;83.95
66681;BME280;53575;51.366;12.350;2022-08-14T06:27:11;99983.63;;;20.41;83.79
66681;BME280;53575;51.366;12.350;2022-08-14T06:29:37;99975.25;;;20.49;83.86
66681;BME280;53575;51.366;12.350;2022-08-14T06:32:03;99973.13;;;20.57;83.56
66681;BME280;53575;51.366;12.350;2022-08-14T06:34:30;99978.78;;;20.66;83.25
66681;BME280;53575;51.366;12.350;2022-08-14T06:36:55;99980.78;;;20.79;82.83
66681;BME280;53575;51.366;12.350;2022-08-14T06:39:22;99982.00;;;20.89;82.69
66681;BME280;53575;51.366;12.350;2022-08-14T06:41:47;99978.66;;;21.01;82.18
66681;BME280;53575;51.366;12.350;2022-08-14T06:44:13;99978.19;;;21.10;81.75
66681;BME280;53575;51.366;12.350;2022-08-14T06:46:39;99977.81;;;21.16;81.76
66681;BME280;53575;51.366;12.350;2022-08-14T06:49:04;99980.22;;;21.21;81.47
66681;BME280;53575;51.366;12.350;2022-08-14T06:51:30;99976.13;;;21.31;81.22
66681;BME280;53575;51.366;12.350;2022-08-14T06:53:55;99979.41;;;21.36;80.95
66681;BME280;53575;51.366;12.350;2022-08-14T06:56:21;99977.78;;;21.50;80.66
66681;BME280;53575;51.366;12.350;2022-08-14T06:58:47;99973.66;;;21.60;80.33
66681;BME280;53575;51.366;12.350;2022-08-14T07:01:13;99973.97;;;21.70;79.89
66681;BME280;53575;51.366;12.350;2022-08-14T07:03:56;99972.59;;;21.78;79.61
66681;BME280;53575;51.366;12.350;2022-08-14T07:06:41;99964.84;;;21.89;78.75
66681;BME280;53575;51.366;12.350;2022-08-14T07:09:09;99969.50;;;22.16;77.80
66681;BME280;53575;51.366;12.350;2022-08-14T07:11:34;99968.13;;;22.25;77.26
66681;BME280;53575;51.366;12.350;2022-08-14T07:13:59;99973.91;;;22.31;77.49
66681;BME280;53575;51.366;12.350;2022-08-14T07:16:25;99964.03;;;22.33;77.37
66681;BME280;53575;51.366;12.350;2022-08-14T07:18:50;99963.94;;;22.35;77.23
66681;BME280;53575;51.366;12.350;2022-08-14T07:21:15;99956.16;;;22.46;76.85
66681;BME280;53575;51.366;12.350;2022-08-14T07:23:41;99966.25;;;22.55;75.92
66681;BME280;53575;51.366;12.350;2022-08-14T07:26:06;99964.63;;;22.53;76.30
66681;BME280;53575;51.366;12.350;2022-08-14T07:28:35;99971.84;;;22.51;76.77
66681;BME280;53575;51.366;12.350;2022-08-14T07:31:03;99971.47;;;22.57;76.17
66681;BME280;53575;51.366;12.350;2022-08-14T07:33:31;99970.91;;;22.66;76.21
66681;BME280;53575;51.366;12.350;2022-08-14T07:36:00;99962.56;;;22.72;76.12
66681;BME280;53575;51.366;12.350;2022-08-14T07:38:26;99965.22;;;22.72;76.39
66681;BME280;53575;51.366;12.350;2022-08-14T07:40:52;99962.19;;;22.78;76.47
66681;BME280;53575;51.366;12.350;2022-08-14T07:43:17;99962.75;;;22.83;75.96
66681;BME280;53575;51.366;12.350;2022-08-14T07:45:43;99957.13;;;22.88;75.65
66681;BME280;53575;51.366;12.350;2022-08-14T07:48:09;99959.69;;;23.04;74.34
66681;BME280;53575;51.366;12.350;2022-08-14T07:50:35;99959.22;;;23.11;73.45
66681;BME280;53575;51.366;12.350;2022-08-14T07:53:00;99956.28;;;23.16;73.41
66681;BME280;53575;51.366;12.350;2022-08-14T07:55:27;99951.31;;;23.24;73.19
66681;BME280;53575;51.366;12.350;2022-08-14T07:57:52;99946.72;;;23.26;73.46
66681;BME280;53575;51.366;12.350;2022-08-14T08:00:20;99944.81;;;23.28;73.44
66681;BME280;53575;51.366;12.350;2022-08-14T08:02:51;99939.38;;;23.30;73.38
66681;BME280;53575;51.366;12.350;2022-08-14T08:05:18;99952.31;;;23.36;73.22
66681;BME280;53575;51.366;12.350;2022-08-14T08:07:45;99948.38;;;23.42;73.01
66681;BME280;53575;51.366;12.350;2022-08-14T08:10:14;99946.06;;;23.50;72.33
66681;BME280;53575;51.366;12.350;2022-08-14T08:13:12;99943.53;;;23.61;71.75
66681;BME280;53575;51.366;12.350;2022-08-14T08:15:40;99944.16;;;23.66;71.91
66681;BME280;53575;51.366;12.350;2022-08-14T08:18:08;99937.66;;;23.70;70.95
66681;BME280;53575;51.366;12.350;2022-08-14T08:20:37;99944.84;;;23.95;69.77
66681;BME280;53575;51.366;12.350;2022-08-14T08:23:04;99945.31;;;24.02;68.82
66681;BME280;53575;51.366;12.350;2022-08-14T08:25:32;99946.34;;;23.99;68.73
66681;BME280;53575;51.366;12.350;2022-08-14T08:28:08;99944.25;;;24.04;68.66
66681;BME280;53575;51.366;12.350;2022-08-14T08:30:36;99951.75;;;24.25;67.94
66681;BME280;53575;51.366;12.350;2022-08-14T08:33:02;99958.38;;;24.32;66.79
66681;BME280;53575;51.366;12.350;2022-08-14T08:35:32;99947.94;;;24.42;66.24
66681;BME280;53575;51.366;12.350;2022-08-14T08:38:06;99945.47;;;24.51;65.27
66681;BME280;53575;51.366;12.350;2022-08-14T08:40:34;99944.84;;;24.48;65.27
66681;BME280;53575;51.366;12.350;2022-08-14T08:43:05;99950.94;;;24.50;65.80
66681;BME280;53575;51.366;12.350;2022-08-14T08:45:32;99944.84;;;24.73;64.94
66681;BME280;53575;51.366;12.350;2022-08-14T08:47:58;99939.19;;;24.65;64.90
66681;BME280;53575;51.366;12.350;2022-08-14T08:50:26;99945.47;;;24.77;65.60
66681;BME280;53575;51.366;12.350;2022-08-14T08:52:55;99935.94;;;24.86;65.04
66681;BME280;53575;51.366;12.350;2022-08-14T08:55:26;99940.59;;;24.95;64.10
66681;BME280;53575;51.366;12.350;2022-08-14T08:57:56;99933.25;;;25.11;63.52
66681;BME280;53575;51.366;12.350;2022-08-14T09:00:22;99929.38;;;25.15;63.02
66681;BME280;53575;51.366;12.350;2022-08-14T09:02:57;99927.50;;;25.28;62.72
66681;BME280;53575;51.366;12.350;2022-08-14T09:05:23;99921.25;;;25.41;62.28
66681;BME280;53575;51.366;12.350;2022-08-14T09:07:49;99919.31;;;25.43;61.94
66681;BME280;53575;51.366;12.350;2022-08-14T09:10:15;99910.72;;;25.50;62.06
66681;BME280;53575;51.366;12.350;2022-08-14T09:12:41;99908.69;;;25.54;62.55
66681;BME280;53575;51.366;12.350;2022-08-14T09:15:07;99912.59;;;25.61;61.40
66681;BME280;53575;51.366;12.350;2022-08-14T09:17:34;99894.84;;;25.71;61.00
66681;BME280;53575;51.366;12.350;2022-08-14T09:20:01;99891.19;;;25.85;60.54
66681;BME280;53575;51.366;12.350;2022-08-14T09:22:27;99899.38;;;25.95;59.84
66681;BME280;53575;51.366;12.350;2022-08-14T09:24:53;99879.41;;;25.99;60.61
66681;BME280;53575;51.366;12.350;2022-08-14T09:27:19;99883.56;;;26.03;60.40
66681;BME280;53575;51.366;12.350;2022-08-14T09:29:44;99888.66;;;26.06;60.49
66681;BME280;53575;51.366;12.350;2022-08-14T09:32:11;99878.94;;;26.16;59.14
66681;BME280;53575;51.366;12.350;2022-08-14T09:35:02;99876.66;;;26.23;58.58
66681;BME280;53575;51.366;12.350;2022-08-14T09:37:48;99872.16;;;26.23;59.09
66681;BME280;53575;51.366;12.350;2022-08-14T09:40:30;99864.13;;;26.35;58.28
66681;BME280;53575;51.366;12.350;2022-08-14T09:43:06;99865.34;;;26.42;58.77
66681;BME280;53575;51.366;12.350;2022-08-14T09:45:46;99859.75;;;26.45;58.93
66681;BME280;53575;51.366;12.350;2022-08-14T09:48:21;99864.75;;;26.49;58.38
66681;BME280;53575;51.366;12.350;2022-08-14T09:50:54;99860.13;;;26.52;57.88
66681;BME280;53575;51.366;12.350;2022-08-14T09:53:41;99851.22;;;26.62;57.87
66681;BME280;53575;51.366;12.350;2022-08-14T09:56:09;99854.03;;;26.72;56.76
66681;BME280;53575;51.366;12.350;2022-08-14T09:58:45;99841.69;;;26.81;56.36
66681;BME280;53575;51.366;12.350;2022-08-14T10:01:14;99831.72;;;26.83;56.34
66681;BME280;53575;51.366;12.350;2022-08-14T10:06:16;99826.28;;;27.05;54.82
66681;BME280;53575;51.366;12.350;2022-08-14T10:08:47;99821.91;;;27.15;54.47
66681;BME280;53575;51.366;12.350;2022-08-14T10:11:21;99814.31;;;27.20;54.62
66681;BME280;53575;51.366;12.350;2022-08-14T10:13:49;99820.22;;;27.35;53.71
66681;BME280;53575;51.366;12.350;2022-08-14T10:16:27;99816.19;;;27.41;53.73
66681;BME280;53575;51.366;12.350;2022-08-14T10:19:09;99813.84;;;27.48;54.00
66681;BME280;53575;51.366;12.350;2022-08-14T10:21:36;99805.34;;;27.63;53.51
66681;BME280;53575;51.366;12.350;2022-08-14T10:24:02;99809.63;;;27.87;51.88
66681;BME280;53575;51.366;12.350;2022-08-14T10:26:33;99805.28;;;27.96;51.62
66681;BME280;53575;51.366;12.350;2022-08-14T10:29:09;99812.06;;;28.00;51.97
66681;BME280;53575;51.366;12.350;2022-08-14T10:31:37;99801.25;;;28.11;51.14
66681;BME280;53575;51.366;12.350;2022-08-14T10:34:07;99797.44;;;28.13;51.00
66681;BME280;53575;51.366;12.350;2022-08-14T10:36:38;99802.31;;;28.29;50.69
66681;BME280;53575;51.366;12.350;2022-08-14T10:39:15;99788.81;;;28.40;49.20
66681;BME280;53575;51.366;12.350;2022-08-14T10:41:42;99791.66;;;28.49;49.07
66681;BME280;53575;51.366;12.350;2022-08-14T10:44:11;99781.50;;;28.52;48.07
66681;BME280;53575;51.366;12.350;2022-08-14T10:46:51;99781.34;;;28.54;48.36
66681;BME280;53575;51.366;12.350;2022-08-14T10:49:19;99771.75;;;28.51;48.74
66681;BME280;53575;51.366;12.350;2022-08-14T10:52:08;99771.16;;;28.48;48.37
66681;BME280;53575;51.366;12.350;2022-08-14T10:54:35;99773.97;;;28.46;48.70
66681;BME280;53575;51.366;12.350;2022-08-14T10:57:15;99770.91;;;28.51;47.75
66681;BME280;53575;51.366;12.350;2022-08-14T11:02:55;99776.13;;;28.52;47.83
66681;BME280;53575;51.366;12.350;2022-08-14T11:05:24;99775.84;;;28.55;47.27
66681;BME280;53575;51.366;12.350;2022-08-14T11:10:21;99762.59;;;28.83;45.48
66681;BME280;53575;51.366;12.350;2022-08-14T11:12:50;99762.31;;;28.86;46.18
66681;BME280;53575;51.366;12.350;2022-08-14T11:15:16;99754.41;;;28.94;46.03
66681;BME280;53575;51.366;12.350;2022-08-14T11:17:43;99754.84;;;28.99;45.46
66681;BME280;53575;51.366;12.350;2022-08-14T11:20:12;99739.44;;;29.01;44.86
66681;BME280;53575;51.366;12.350;2022-08-14T11:22:39;99745.38;;;29.05;45.70
66681;BME280;53575;51.366;12.350;2022-08-14T11:25:06;99746.06;;;29.07;45.47
66681;BME280;53575;51.366;12.350;2022-08-14T11:27:33;99750.88;;;29.23;45.01
66681;BME280;53575;51.366;12.350;2022-08-14T11:30:10;99737.53;;;29.41;43.87
66681;BME280;53575;51.366;12.350;2022-08-14T11:32:38;99739.09;;;29.62;43.69
66681;BME280;53575;51.366;12.350;2022-08-14T11:35:04;99742.03;;;29.79;43.07
66681;BME280;53575;51.366;12.350;2022-08-14T11:37:30;99730.28;;;30.07;42.41
66681;BME280;53575;51.366;12.350;2022-08-14T11:39:58;99732.66;;;30.20;41.82
66681;BME280;53575;51.366;12.350;2022-08-14T11:42:25;99730.13;;;30.19;40.62
66681;BME280;53575;51.366;12.350;2022-08-14T11:44:54;99720.84;;;30.31;40.12
66681;BME280;53575;51.366;12.350;2022-08-14T11:47:20;99730.78;;;30.48;40.36
66681;BME280;53575;51.366;12.350;2022-08-14T11:49:46;99716.88;;;30.71;39.97
66681;BME280;53575;51.366;12.350;2022-08-14T11:52:14;99716.38;;;30.85;38.03
66681;BME280;53575;51.366;12.350;2022-08-14T11:54:43;99708.50;;;31.10;38.55
66681;BME280;53575;51.366;12.350;2022-08-14T11:57:15;99705.53;;;31.21;38.27
66681;BME280;53575;51.366;12.350;2022-08-14T11:59:40;99704.94;;;31.27;38.31
66681;BME280;53575;51.366;12.350;2022-08-14T12:02:11;99697.84;;;31.26;37.80
66681;BME280;53575;51.366;12.350;2022-08-14T12:04:47;99702.16;;;31.19;37.98
66681;BME280;53575;51.366;12.350;2022-08-14T12:07:13;99694.06;;;31.19;38.22
66681;BME280;53575;51.366;12.350;2022-08-14T12:09:38;99693.59;;;31.41;37.57
66681;BME280;53575;51.366;12.350;2022-08-14T12:12:23;99691.25;;;31.72;36.69
66681;BME280;53575;51.366;12.350;2022-08-14T12:14:50;99693.09;;;31.98;36.31
66681;BME280;53575;51.366;12.350;2022-08-14T12:17:24;99680.47;;;32.07;35.45
66681;BME280;53575;51.366;12.350;2022-08-14T12:19:56;99681.53;;;32.22;35.51
66681;BME280;53575;51.366;12.350;2022-08-14T12:22:40;99670.47;;;32.49;34.72
66681;BME280;53575;51.366;12.350;2022-08-14T12:25:12;99667.28;;;32.70;35.18
66681;BME280;53575;51.366;12.350;2022-08-14T12:27:39;99669.16;;;32.86;34.48
66681;BME280;53575;51.366;12.350;2022-08-14T12:30:07;99671.03;;;33.02;34.06
66681;BME280;53575;51.366;12.350;2022-08-14T12:32:43;99655.13;;;33.15;33.65
66681;BME280;53575;51.366;12.350;2022-08-14T12:35:12;99654.28;;;33.15;33.48
66681;BME280;53575;51.366;12.350;2022-08-14T12:37:38;99655.63;;;33.19;33.73
66681;BME280;53575;51.366;12.350;2022-08-14T12:40:12;99654.09;;;33.08;33.36
66681;BME280;53575;51.366;12.350;2022-08-14T12:42:39;99644.13;;;33.00;34.33
66681;BME280;53575;51.366;12.350;2022-08-14T12:45:06;99642.78;;;33.13;33.55
66681;BME280;53575;51.366;12.350;2022-08-14T12:47:32;99636.31;;;32.73;33.78
66681;BME280;53575;51.366;12.350;2022-08-14T12:49:57;99631.59;;;32.91;33.95
66681;BME280;53575;51.366;12.350;2022-08-14T12:52:30;99630.91;;;33.30;33.43
66681;BME280;53575;51.366;12.350;2022-08-14T12:55:01;99629.50;;;33.59;33.21
66681;BME280;53575;51.366;12.350;2022-08-14T12:57:38;99625.66;;;33.84;32.08
66681;BME280;53575;51.366;12.350;2022-08-14T13:02:43;99612.22;;;34.30;31.65